sensor_id;sensor_type;location;lat;lon;timestamp;pressure;altitude;pressure_sealevel;temperature;humidity
23229;BME280;11783;50.350;6.576;2023-04-03T00:00:56;97190.59;;;2.60;100.00
23229;BME280;11783;50.350;6.576;2023-04-03T00:03:22;97187.97;;;2.60;100.00
23229;BME280;11783;50.350;6.576;2023-04-03T00:05:48;97187.81;;;2.61;100.00
23229;BME280;11783;50.350;6.576;2023-04-03T00:08:14;97179.59;;;2.64;100.00
23229;BME280;11783;50.350;6.576;2023-04-03T00:10:39;97186.13;;;2.68;100.00
23229;BME280;11783;50.350;6.576;2023-04-03T00:13:06;97182.53;;;2.69;100.00
23229;BME280;11783;50.350;6.576;2023-04-03T00:15:32;97181.38;;;2.72;100.00
23229;BME280;11783;50.350;6.576;2023-04-03T00:17:58;97176.13;;;2.72;100.00
23229;BME280;11783;50.350;6.576;2023-04-03T00:20:23;97182.00;;;2.74;100.00
23229;BME280;11783;50.350;6.576;2023-04-03T00:22:49;97178.75;;;2.72;100.00
23229;BME280;11783;50.350;6.576;2023-04-03T00:25:15;97174.66;;;2.69;100.00
23229;BME280;11783;50.350;6.576;2023-04-03T00:27:40;97177.28;;;2.69;100.00
23229;BME280;11783;50.350;6.576;2023-04-03T00:30:08;97178.91;;;2.70;100.00
23229;BME280;11783;50.350;6.576;2023-04-03T00:32:34;97178.44;;;2.67;100.00
23229;BME280;11783;50.350;6.576;2023-04-03T00:34:59;97171.72;;;2.64;100.00
23229;BME280;11783;50.350;6.576;2023-04-03T00:37:25;97166.47;;;2.64;100.00
23229;BME280;11783;50.350;6.576;2023-04-03T00:39:50;97161.41;;;2.63;100.00
23229;BME280;11783;50.350;6.576;2023-04-03T00:42:16;97168.28;;;2.64;100.00
23229;BME280;11783;50.350;6.576;2023-04-03T00:47:10;97157.47;;;2.59;100.00
23229;BME280;11783;50.350;6.576;2023-04-03T00:49:37;97162.22;;;2.55;100.00
23229;BME280;11783;50.350;6.576;2023-04-03T00:52:04;97168.47;;;2.54;100.00
23229;BME280;11783;50.350;6.576;2023-04-03T00:54:32;97167.81;;;2.52;100.00
23229;BME280;11783;50.350;6.576;2023-04-03T00:56:58;97170.63;;;2.51;100.00
23229;BME280;11783;50.350;6.576;2023-04-03T00:59:28;97171.44;;;2.51;100.00
23229;BME280;11783;50.350;6.576;2023-04-03T01:01:55;97171.13;;;2.46;100.00
23229;BME280;11783;50.350;6.576;2023-04-03T01:04:29;97165.88;;;2.46;100.00
23229;BME280;11783;50.350;6.576;2023-04-03T01:07:02;97173.44;;;2.41;100.00
23229;BME280;11783;50.350;6.576;2023-04-03T01:09:28;97164.44;;;2.35;100.00
23229;BME280;11783;50.350;6.576;2023-04-03T01:12:33;97170.66;;;2.34;100.00
23229;BME280;11783;50.350;6.576;2023-04-03T01:15:13;97169.84;;;2.34;100.00
23229;BME280;11783;50.350;6.576;2023-04-03T01:17:41;97171.66;;;2.33;100.00
23229;BME280;11783;50.350;6.576;2023-04-03T01:28:16;97162.50;;;2.29;100.00
23229;BME280;11783;50.350;6.576;2023-04-03T01:33:26;97160.03;;;2.28;100.00
23229;BME280;11783;50.350;6.576;2023-04-03T01:35:51;97166.59;;;2.32;100.00
23229;BME280;11783;50.350;6.576;2023-04-03T01:38:17;97164.94;;;2.31;100.00
23229;BME280;11783;50.350;6.576;2023-04-03T01:40:42;97172.00;;;2.30;100.00
23229;BME280;11783;50.350;6.576;2023-04-03T01:43:08;97161.66;;;2.29;100.00
23229;BME280;11783;50.350;6.576;2023-04-03T01:45:33;97164.28;;;2.29;100.00
23229;BME280;11783;50.350;6.576;2023-04-03T01:47:59;97166.44;;;2.25;100.00
23229;BME280;11783;50.350;6.576;2023-04-03T01:50:24;97166.44;;;2.25;100.00
23229;BME280;11783;50.350;6.576;2023-04-03T01:52:49;97173.50;;;2.25;100.00
23229;BME280;11783;50.350;6.576;2023-04-03T01:55:15;97162.19;;;2.24;100.00
23229;BME280;11783;50.350;6.576;2023-04-03T01:57:40;97164.00;;;2.24;100.00
23229;BME280;11783;50.350;6.576;2023-04-03T02:00:06;97167.56;;;2.23;100.00
23229;BME280;11783;50.350;6.576;2023-04-03T02:02:33;97170.06;;;2.24;100.00
23229;BME280;11783;50.350;6.576;2023-04-03T02:04:58;97168.72;;;2.20;100.00
23229;BME280;11783;50.350;6.576;2023-04-03T02:07:23;97166.91;;;2.21;100.00
23229;BME280;11783;50.350;6.576;2023-04-03T02:09:49;97171.84;;;2.16;100.00
23229;BME280;11783;50.350;6.576;2023-04-03T02:12:14;97175.31;;;2.16;100.00
23229;BME280;11783;50.350;6.576;2023-04-03T02:14:40;97175.31;;;2.16;100.00
23229;BME280;11783;50.350;6.576;2023-04-03T02:17:05;97176.13;;;2.17;100.00
23229;BME280;11783;50.350;6.576;2023-04-03T02:19:34;97174.00;;;2.12;100.00
23229;BME280;11783;50.350;6.576;2023-04-03T02:22:00;97166.13;;;2.12;100.00
23229;BME280;11783;50.350;6.576;2023-04-03T02:24:26;97174.81;;;2.12;100.00
23229;BME280;11783;50.350;6.576;2023-04-03T02:26:51;97178.59;;;2.10;100.00
23229;BME280;11783;50.350;6.576;2023-04-03T02:29:17;97178.59;;;2.10;100.00
23229;BME280;11783;50.350;6.576;2023-04-03T02:31:42;97173.69;;;2.07;100.00
23229;BME280;11783;50.350;6.576;2023-04-03T02:34:07;97171.88;;;2.07;100.00
23229;BME280;11783;50.350;6.576;2023-04-03T02:36:33;97175.31;;;2.08;100.00
23229;BME280;11783;50.350;6.576;2023-04-03T02:38:58;97175.50;;;2.06;100.00
23229;BME280;11783;50.350;6.576;2023-04-03T02:41:24;97173.34;;;2.02;100.00
23229;BME280;11783;50.350;6.576;2023-04-03T02:43:53;97171.88;;;1.99;100.00
23229;BME280;11783;50.350;6.576;2023-04-03T02:46:18;97172.88;;;1.98;100.00
23229;BME280;11783;50.350;6.576;2023-04-03T02:48:44;97173.03;;;1.97;100.00
23229;BME280;11783;50.350;6.576;2023-04-03T02:51:09;97173.19;;;1.95;100.00
23229;BME280;11783;50.350;6.576;2023-04-03T02:53:35;97181.72;;;1.97;100.00
23229;BME280;11783;50.350;6.576;2023-04-03T02:56:00;97169.75;;;1.95;100.00
23229;BME280;11783;50.350;6.576;2023-04-03T02:58:25;97169.13;;;1.93;100.00
23229;BME280;11783;50.350;6.576;2023-04-03T03:00:51;97177.31;;;1.90;100.00
23229;BME280;11783;50.350;6.576;2023-04-03T03:03:16;97176.66;;;1.88;100.00
23229;BME280;11783;50.350;6.576;2023-04-03T03:05:42;97175.03;;;1.87;100.00
23229;BME280;11783;50.350;6.576;2023-04-03T03:08:07;97170.44;;;1.89;100.00
23229;BME280;11783;50.350;6.576;2023-04-03T03:10:32;97181.75;;;1.89;100.00
23229;BME280;11783;50.350;6.576;2023-04-03T03:12:58;97183.38;;;1.90;100.00
23229;BME280;11783;50.350;6.576;2023-04-03T03:15:23;97182.88;;;1.87;100.00
23229;BME280;11783;50.350;6.576;2023-04-03T03:17:49;97179.44;;;1.86;100.00
23229;BME280;11783;50.350;6.576;2023-04-03T03:20:14;97186.34;;;1.87;100.00
23229;BME280;11783;50.350;6.576;2023-04-03T03:22:40;97184.00;;;1.84;100.00
23229;BME280;11783;50.350;6.576;2023-04-03T03:25:06;97184.00;;;1.84;100.00
23229;BME280;11783;50.350;6.576;2023-04-03T03:27:31;97178.94;;;1.82;100.00
23229;BME280;11783;50.350;6.576;2023-04-03T03:29:57;97177.31;;;1.81;100.00
23229;BME280;11783;50.350;6.576;2023-04-03T03:32:22;97176.47;;;1.81;100.00
23229;BME280;11783;50.350;6.576;2023-04-03T03:34:47;97175.84;;;1.79;100.00
23229;BME280;11783;50.350;6.576;2023-04-03T03:37:13;97175.66;;;1.80;100.00
23229;BME280;11783;50.350;6.576;2023-04-03T03:39:38;97173.03;;;1.80;100.00
23229;BME280;11783;50.350;6.576;2023-04-03T03:42:03;97177.63;;;1.78;100.00
23229;BME280;11783;50.350;6.576;2023-04-03T03:44:29;97173.22;;;1.79;100.00
23229;BME280;11783;50.350;6.576;2023-04-03T03:46:55;97179.44;;;1.78;100.00
23229;BME280;11783;50.350;6.576;2023-04-03T03:49:21;97183.03;;;1.77;100.00
23229;BME280;11783;50.350;6.576;2023-04-03T03:51:46;97180.59;;;1.75;100.00
23229;BME280;11783;50.350;6.576;2023-04-03T03:54:12;97177.31;;;1.73;100.00
23229;BME280;11783;50.350;6.576;2023-04-03T03:56:37;97175.69;;;1.72;100.00
23229;BME280;11783;50.350;6.576;2023-04-03T03:59:03;97180.28;;;1.70;100.00
23229;BME280;11783;50.350;6.576;2023-04-03T04:01:28;97180.44;;;1.69;100.00
23229;BME280;11783;50.350;6.576;2023-04-03T04:03:54;97179.63;;;1.68;100.00
23229;BME280;11783;50.350;6.576;2023-04-03T04:06:20;97170.78;;;1.69;100.00
23229;BME280;11783;50.350;6.576;2023-04-03T04:08:46;97169.13;;;1.68;100.00
23229;BME280;11783;50.350;6.576;2023-04-03T04:11:12;97171.75;;;1.68;100.00
23229;BME280;11783;50.350;6.576;2023-04-03T04:13:37;97175.19;;;1.69;100.00
23229;BME280;11783;50.350;6.576;2023-04-03T04:16:03;97179.75;;;1.67;100.00
23229;BME280;11783;50.350;6.576;2023-04-03T04:18:28;97183.19;;;1.67;100.00
23229;BME280;11783;50.350;6.576;2023-04-03T04:20:53;97182.06;;;1.70;100.00
23229;BME280;11783;50.350;6.576;2023-04-03T04:23:19;97177.00;;;1.68;100.00
23229;BME280;11783;50.350;6.576;2023-04-03T04:25:45;97177.94;;;1.67;100.00
23229;BME280;11783;50.350;6.576;2023-04-03T04:28:11;97177.94;;;1.67;100.00
23229;BME280;11783;50.350;6.576;2023-04-03T04:30:37;97170.09;;;1.67;100.00
23229;BME280;11783;50.350;6.576;2023-04-03T04:33:02;97176.31;;;1.66;100.00
23229;BME280;11783;50.350;6.576;2023-04-03T04:35:28;97167.63;;;1.66;100.00
23229;BME280;11783;50.350;6.576;2023-04-03T04:37:53;97177.13;;;1.67;100.00
23229;BME280;11783;50.350;6.576;2023-04-03T04:40:19;97171.91;;;1.67;100.00
23229;BME280;11783;50.350;6.576;2023-04-03T04:42:44;97173.03;;;1.64;100.00
23229;BME280;11783;50.350;6.576;2023-04-03T04:45:10;97173.88;;;1.65;100.00
23229;BME280;11783;50.350;6.576;2023-04-03T04:47:35;97181.56;;;1.66;100.00
23229;BME280;11783;50.350;6.576;2023-04-03T04:50:00;97179.63;;;1.68;100.00
23229;BME280;11783;50.350;6.576;2023-04-03T04:52:26;97185.97;;;1.66;100.00
23229;BME280;11783;50.350;6.576;2023-04-03T04:54:51;97182.06;;;1.62;100.00
23229;BME280;11783;50.350;6.576;2023-04-03T04:57:17;97191.72;;;1.61;100.00
23229;BME280;11783;50.350;6.576;2023-04-03T04:59:42;97187.47;;;1.60;100.00
23229;BME280;11783;50.350;6.576;2023-04-03T05:02:08;97180.59;;;1.59;100.00
23229;BME280;11783;50.350;6.576;2023-04-03T05:04:35;97193.03;;;1.57;100.00
23229;BME280;11783;50.350;6.576;2023-04-03T05:07:02;97188.78;;;1.56;100.00
23229;BME280;11783;50.350;6.576;2023-04-03T05:09:27;97188.94;;;1.55;100.00
23229;BME280;11783;50.350;6.576;2023-04-03T05:11:53;97201.22;;;1.54;100.00
23229;BME280;11783;50.350;6.576;2023-04-03T05:14:18;97197.13;;;1.51;100.00
23229;BME280;11783;50.350;6.576;2023-04-03T05:16:43;97195.78;;;1.47;100.00
23229;BME280;11783;50.350;6.576;2023-04-03T05:19:09;97199.56;;;1.45;100.00
23229;BME280;11783;50.350;6.576;2023-04-03T05:21:35;97198.25;;;1.41;100.00
23229;BME280;11783;50.350;6.576;2023-04-03T05:24:01;97201.69;;;1.41;100.00
23229;BME280;11783;50.350;6.576;2023-04-03T05:26:28;97198.91;;;1.43;100.00
23229;BME280;11783;50.350;6.576;2023-04-03T05:28:54;97203.50;;;1.41;100.00
23229;BME280;11783;50.350;6.576;2023-04-03T05:31:19;97207.41;;;1.37;100.00
23229;BME280;11783;50.350;6.576;2023-04-03T05:33:45;97207.09;;;1.32;100.00
23229;BME280;11783;50.350;6.576;2023-04-03T05:36:12;97217.72;;;1.30;100.00
23229;BME280;11783;50.350;6.576;2023-04-03T05:38:38;97211.66;;;1.30;100.00
23229;BME280;11783;50.350;6.576;2023-04-03T05:41:04;97216.72;;;1.23;100.00
23229;BME280;11783;50.350;6.576;2023-04-03T05:43:30;97213.13;;;1.24;100.00
23229;BME280;11783;50.350;6.576;2023-04-03T05:45:55;97217.53;;;1.24;100.00
23229;BME280;11783;50.350;6.576;2023-04-03T05:48:21;97221.13;;;1.23;100.00
23229;BME280;11783;50.350;6.576;2023-04-03T05:50:47;97230.47;;;1.25;100.00
23229;BME280;11783;50.350;6.576;2023-04-03T05:53:17;97223.16;;;0.86;100.00
23229;BME280;11783;50.350;6.576;2023-04-03T05:55:46;97224.69;;;1.05;100.00
23229;BME280;11783;50.350;6.576;2023-04-03T05:58:11;97236.31;;;1.11;100.00
23229;BME280;11783;50.350;6.576;2023-04-03T06:00:37;97228.28;;;1.04;100.00
23229;BME280;11783;50.350;6.576;2023-04-03T06:03:02;97236.47;;;1.09;100.00
23229;BME280;11783;50.350;6.576;2023-04-03T06:05:27;97231.88;;;1.11;100.00
23229;BME280;11783;50.350;6.576;2023-04-03T06:07:53;97231.75;;;1.13;100.00
23229;BME280;11783;50.350;6.576;2023-04-03T06:10:19;97227.34;;;1.13;100.00
23229;BME280;11783;50.350;6.576;2023-04-03T06:12:45;97232.25;;;1.16;100.00
23229;BME280;11783;50.350;6.576;2023-04-03T06:15:10;97230.78;;;1.14;100.00
23229;BME280;11783;50.350;6.576;2023-04-03T06:17:37;97235.13;;;0.97;100.00
23229;BME280;11783;50.350;6.576;2023-04-03T06:20:03;97235.47;;;1.02;100.00
23229;BME280;11783;50.350;6.576;2023-04-03T06:22:29;97240.06;;;1.08;100.00
23229;BME280;11783;50.350;6.576;2023-04-03T06:24:56;97240.72;;;0.68;100.00
23229;BME280;11783;50.350;6.576;2023-04-03T06:27:21;97247.13;;;0.74;100.00
23229;BME280;11783;50.350;6.576;2023-04-03T06:29:47;97248.81;;;0.83;100.00
23229;BME280;11783;50.350;6.576;2023-04-03T06:32:14;97249.31;;;0.86;100.00
23229;BME280;11783;50.350;6.576;2023-04-03T06:34:39;97250.53;;;0.66;100.00
23229;BME280;11783;50.350;6.576;2023-04-03T06:37:05;97249.78;;;0.82;100.00
23229;BME280;11783;50.350;6.576;2023-04-03T06:39:31;97253.06;;;0.84;100.00
23229;BME280;11783;50.350;6.576;2023-04-03T06:41:56;97249.13;;;0.80;100.00
23229;BME280;11783;50.350;6.576;2023-04-03T06:44:22;97255.56;;;0.59;100.00
23229;BME280;11783;50.350;6.576;2023-04-03T06:46:47;97258.03;;;0.61;100.00
23229;BME280;11783;50.350;6.576;2023-04-03T06:49:13;97258.50;;;0.56;100.00
23229;BME280;11783;50.350;6.576;2023-04-03T06:51:40;97270.22;;;0.52;100.00
23229;BME280;11783;50.350;6.576;2023-04-03T06:54:06;97269.09;;;0.55;100.00
23229;BME280;11783;50.350;6.576;2023-04-03T06:56:33;97267.78;;;0.51;100.00
23229;BME280;11783;50.350;6.576;2023-04-03T06:58:59;97265.53;;;0.56;100.00
23229;BME280;11783;50.350;6.576;2023-04-03T07:01:26;97269.97;;;0.64;100.00
23229;BME280;11783;50.350;6.576;2023-04-03T07:03:53;97269.31;;;0.62;100.00
23229;BME280;11783;50.350;6.576;2023-04-03T07:06:19;97274.09;;;0.74;100.00
23229;BME280;11783;50.350;6.576;2023-04-03T07:08:45;97269.41;;;0.78;100.00
23229;BME280;11783;50.350;6.576;2023-04-03T07:11:12;97267.47;;;0.54;100.00
23229;BME280;11783;50.350;6.576;2023-04-03T07:13:38;97271.13;;;0.61;100.00
23229;BME280;11783;50.350;6.576;2023-04-03T07:16:04;97280.09;;;0.58;100.00
23229;BME280;11783;50.350;6.576;2023-04-03T07:18:31;97274.31;;;0.55;100.00
23229;BME280;11783;50.350;6.576;2023-04-03T07:20:56;97276.00;;;0.56;100.00
23229;BME280;11783;50.350;6.576;2023-04-03T07:23:22;97273.41;;;0.64;100.00
23229;BME280;11783;50.350;6.576;2023-04-03T07:25:50;97271.38;;;0.76;100.00
23229;BME280;11783;50.350;6.576;2023-04-03T07:28:17;97264.78;;;0.72;100.00
23229;BME280;11783;50.350;6.576;2023-04-03T07:30:44;97272.53;;;0.81;100.00
23229;BME280;11783;50.350;6.576;2023-04-03T07:33:11;97275.66;;;0.85;100.00
23229;BME280;11783;50.350;6.576;2023-04-03T07:35:37;97271.41;;;0.92;100.00
23229;BME280;11783;50.350;6.576;2023-04-03T07:38:02;97271.66;;;1.07;100.00
23229;BME280;11783;50.350;6.576;2023-04-03T07:40:27;97272.84;;;1.20;100.00
23229;BME280;11783;50.350;6.576;2023-04-03T07:42:53;97266.16;;;1.26;100.00
23229;BME280;11783;50.350;6.576;2023-04-03T07:45:18;97268.69;;;1.52;100.00
23229;BME280;11783;50.350;6.576;2023-04-03T07:47:44;97272.84;;;1.87;100.00
23229;BME280;11783;50.350;6.576;2023-04-03T07:50:10;97272.16;;;2.18;100.00
23229;BME280;11783;50.350;6.576;2023-04-03T07:52:36;97269.66;;;2.57;100.00
23229;BME280;11783;50.350;6.576;2023-04-03T07:55:01;97269.19;;;2.53;95.49
23229;BME280;11783;50.350;6.576;2023-04-03T07:57:26;97259.78;;;2.75;98.40
23229;BME280;11783;50.350;6.576;2023-04-03T07:59:52;97264.63;;;2.94;95.16
23229;BME280;11783;50.350;6.576;2023-04-03T08:02:17;97275.34;;;2.77;89.98
23229;BME280;11783;50.350;6.576;2023-04-03T08:04:42;97274.50;;;2.92;94.80
23229;BME280;11783;50.350;6.576;2023-04-03T08:07:08;97283.66;;;3.04;93.29
23229;BME280;11783;50.350;6.576;2023-04-03T08:09:33;97268.34;;;3.16;90.01
23229;BME280;11783;50.350;6.576;2023-04-03T08:11:59;97260.34;;;3.32;91.45
23229;BME280;11783;50.350;6.576;2023-04-03T08:14:24;97276.56;;;3.44;88.45
23229;BME280;11783;50.350;6.576;2023-04-03T08:16:50;97283.94;;;3.49;89.19
23229;BME280;11783;50.350;6.576;2023-04-03T08:19:16;97270.13;;;3.55;88.09
23229;BME280;11783;50.350;6.576;2023-04-03T08:21:43;97281.19;;;3.73;88.89
23229;BME280;11783;50.350;6.576;2023-04-03T08:24:09;97269.13;;;3.56;82.21
23229;BME280;11783;50.350;6.576;2023-04-03T08:26:35;97271.50;;;3.65;82.28
23229;BME280;11783;50.350;6.576;2023-04-03T08:29:00;97274.44;;;3.71;85.20
23229;BME280;11783;50.350;6.576;2023-04-03T08:31:26;97278.13;;;3.84;84.21
23229;BME280;11783;50.350;6.576;2023-04-03T08:33:51;97273.06;;;3.83;80.04
23229;BME280;11783;50.350;6.576;2023-04-03T08:36:26;97271.19;;;4.14;85.51
23229;BME280;11783;50.350;6.576;2023-04-03T08:38:53;97268.41;;;4.31;81.78
23229;BME280;11783;50.350;6.576;2023-04-03T08:46:49;97282.34;;;4.16;83.00
23229;BME280;11783;50.350;6.576;2023-04-03T08:49:33;97284.38;;;4.06;79.80
23229;BME280;11783;50.350;6.576;2023-04-03T08:52:02;97285.44;;;4.20;82.19
23229;BME280;11783;50.350;6.576;2023-04-03T08:54:48;97292.16;;;4.00;76.51
23229;BME280;11783;50.350;6.576;2023-04-03T08:57:14;97287.44;;;4.18;83.12
23229;BME280;11783;50.350;6.576;2023-04-03T08:59:41;97295.09;;;4.42;80.37
23229;BME280;11783;50.350;6.576;2023-04-03T09:02:24;97293.97;;;4.22;85.18
23229;BME280;11783;50.350;6.576;2023-04-03T09:05:35;97297.91;;;4.41;84.05
23229;BME280;11783;50.350;6.576;2023-04-03T09:10:42;97288.84;;;5.10;78.73
23229;BME280;11783;50.350;6.576;2023-04-03T09:13:42;97292.47;;;5.24;73.94
23229;BME280;11783;50.350;6.576;2023-04-03T09:16:27;97294.91;;;4.67;76.67
23229;BME280;11783;50.350;6.576;2023-04-03T09:19:15;97298.09;;;4.39;72.40
23229;BME280;11783;50.350;6.576;2023-04-03T09:21:44;97290.44;;;4.67;72.16
23229;BME280;11783;50.350;6.576;2023-04-03T09:24:12;97287.13;;;5.03;75.35
23229;BME280;11783;50.350;6.576;2023-04-03T09:26:46;97284.06;;;5.50;75.54
23229;BME280;11783;50.350;6.576;2023-04-03T09:29:22;97289.31;;;5.86;75.14
23229;BME280;11783;50.350;6.576;2023-04-03T09:31:50;97284.66;;;5.67;68.61
23229;BME280;11783;50.350;6.576;2023-04-03T09:34:23;97288.97;;;5.74;71.10
23229;BME280;11783;50.350;6.576;2023-04-03T09:36:52;97286.25;;;5.83;69.84
23229;BME280;11783;50.350;6.576;2023-04-03T09:39:24;97280.59;;;5.86;65.89
23229;BME280;11783;50.350;6.576;2023-04-03T09:42:05;97275.91;;;5.30;65.80
23229;BME280;11783;50.350;6.576;2023-04-03T09:44:33;97279.69;;;5.93;69.79
23229;BME280;11783;50.350;6.576;2023-04-03T09:47:18;97276.41;;;5.91;70.78
23229;BME280;11783;50.350;6.576;2023-04-03T09:49:43;97267.50;;;6.35;70.26
23229;BME280;11783;50.350;6.576;2023-04-03T09:52:26;97269.66;;;6.31;73.31
23229;BME280;11783;50.350;6.576;2023-04-03T09:54:51;97276.28;;;6.42;65.84
23229;BME280;11783;50.350;6.576;2023-04-03T09:57:17;97278.25;;;6.33;67.70
23229;BME280;11783;50.350;6.576;2023-04-03T09:59:47;97278.16;;;6.27;66.49
23229;BME280;11783;50.350;6.576;2023-04-03T10:04:52;97279.59;;;6.51;69.11
23229;BME280;11783;50.350;6.576;2023-04-03T10:07:38;97276.50;;;6.47;69.30
23229;BME280;11783;50.350;6.576;2023-04-03T10:12:42;97276.13;;;6.50;70.86
23229;BME280;11783;50.350;6.576;2023-04-03T10:15:12;97281.91;;;6.60;66.33
23229;BME280;11783;50.350;6.576;2023-04-03T10:17:56;97277.19;;;6.56;68.67
23229;BME280;11783;50.350;6.576;2023-04-03T10:20:37;97265.47;;;6.93;67.34
23229;BME280;11783;50.350;6.576;2023-04-03T10:26:21;97272.72;;;6.84;61.34
23229;BME280;11783;50.350;6.576;2023-04-03T10:28:55;97259.91;;;6.53;67.11
23229;BME280;11783;50.350;6.576;2023-04-03T10:31:26;97260.44;;;6.70;66.16
23229;BME280;11783;50.350;6.576;2023-04-03T10:34:39;97269.69;;;6.59;68.53
23229;BME280;11783;50.350;6.576;2023-04-03T10:39:53;97271.06;;;6.83;67.46
23229;BME280;11783;50.350;6.576;2023-04-03T10:42:35;97265.56;;;7.13;65.09
23229;BME280;11783;50.350;6.576;2023-04-03T10:48:08;97279.56;;;6.23;65.20
23229;BME280;11783;50.350;6.576;2023-04-03T10:56:30;97249.91;;;6.21;71.79
23229;BME280;11783;50.350;6.576;2023-04-03T11:01:30;97247.97;;;6.92;60.58
23229;BME280;11783;50.350;6.576;2023-04-03T11:03:58;97239.94;;;7.07;66.75
23229;BME280;11783;50.350;6.576;2023-04-03T11:06:26;97232.31;;;7.38;64.63
23229;BME280;11783;50.350;6.576;2023-04-03T11:08:57;97248.69;;;7.68;60.31
23229;BME280;11783;50.350;6.576;2023-04-03T11:11:29;97230.22;;;7.81;59.18
23229;BME280;11783;50.350;6.576;2023-04-03T11:16:33;97234.50;;;8.09;60.07
23229;BME280;11783;50.350;6.576;2023-04-03T11:21:46;97236.44;;;7.47;54.78
23229;BME280;11783;50.350;6.576;2023-04-03T11:24:23;97240.59;;;7.96;58.88
23229;BME280;11783;50.350;6.576;2023-04-03T11:26:51;97219.44;;;8.16;57.93
23229;BME280;11783;50.350;6.576;2023-04-03T11:29:23;97225.75;;;8.08;56.87
23229;BME280;11783;50.350;6.576;2023-04-03T11:36:58;97215.41;;;8.40;62.51
23229;BME280;11783;50.350;6.576;2023-04-03T11:39:29;97211.91;;;8.66;62.17
23229;BME280;11783;50.350;6.576;2023-04-03T11:42:13;97208.84;;;8.75;58.22
23229;BME280;11783;50.350;6.576;2023-04-03T11:44:40;97218.69;;;7.35;52.25
23229;BME280;11783;50.350;6.576;2023-04-03T11:47:08;97205.19;;;7.84;60.56
23229;BME280;11783;50.350;6.576;2023-04-03T11:49:59;97210.31;;;8.18;59.49
23229;BME280;11783;50.350;6.576;2023-04-03T12:05:56;97204.56;;;8.15;59.88
23229;BME280;11783;50.350;6.576;2023-04-03T12:08:42;97195.22;;;8.45;55.04
23229;BME280;11783;50.350;6.576;2023-04-03T12:14:19;97175.19;;;8.76;57.92
23229;BME280;11783;50.350;6.576;2023-04-03T12:16:25;97188.09;;;8.19;53.12
23229;BME280;11783;50.350;6.576;2023-04-03T12:26:41;97181.38;;;8.43;53.96
23229;BME280;11783;50.350;6.576;2023-04-03T12:51:19;97163.06;;;9.06;49.17
23229;BME280;11783;50.350;6.576;2023-04-03T12:53:46;97171.72;;;9.33;51.84
23229;BME280;11783;50.350;6.576;2023-04-03T12:56:27;97162.81;;;8.57;48.80
23229;BME280;11783;50.350;6.576;2023-04-03T12:58:55;97166.16;;;8.97;51.13
23229;BME280;11783;50.350;6.576;2023-04-03T13:01:24;97166.28;;;9.15;44.36
23229;BME280;11783;50.350;6.576;2023-04-03T13:03:54;97163.72;;;8.89;47.65
23229;BME280;11783;50.350;6.576;2023-04-03T13:06:29;97158.75;;;8.28;42.00
23229;BME280;11783;50.350;6.576;2023-04-03T13:08:58;97155.09;;;8.42;43.02
23229;BME280;11783;50.350;6.576;2023-04-03T13:11:27;97153.38;;;8.80;47.47
23229;BME280;11783;50.350;6.576;2023-04-03T13:14:21;97158.00;;;8.98;43.79
23229;BME280;11783;50.350;6.576;2023-04-03T13:17:10;97143.25;;;9.09;47.75
23229;BME280;11783;50.350;6.576;2023-04-03T13:19:37;97152.09;;;8.96;46.19
23229;BME280;11783;50.350;6.576;2023-04-03T13:22:11;97137.00;;;8.97;43.79
23229;BME280;11783;50.350;6.576;2023-04-03T13:24:46;97140.66;;;9.40;46.78
23229;BME280;11783;50.350;6.576;2023-04-03T13:27:12;97135.81;;;9.62;45.45
23229;BME280;11783;50.350;6.576;2023-04-03T13:29:39;97139.03;;;9.71;43.08
23229;BME280;11783;50.350;6.576;2023-04-03T13:32:05;97140.28;;;9.93;46.58
23229;BME280;11783;50.350;6.576;2023-04-03T13:34:41;97146.53;;;9.49;43.91
23229;BME280;11783;50.350;6.576;2023-04-03T13:37:19;97144.06;;;9.48;47.27
23229;BME280;11783;50.350;6.576;2023-04-03T13:39:45;97143.84;;;9.81;44.04
23229;BME280;11783;50.350;6.576;2023-04-03T13:42:26;97148.03;;;9.70;42.30
23229;BME280;11783;50.350;6.576;2023-04-03T13:47:41;97140.06;;;10.20;44.76
23229;BME280;11783;50.350;6.576;2023-04-03T13:50:24;97132.91;;;10.20;42.33
23229;BME280;11783;50.350;6.576;2023-04-03T13:53:09;97139.25;;;10.19;42.96
23229;BME280;11783;50.350;6.576;2023-04-03T13:56:04;97142.66;;;9.77;44.71
23229;BME280;11783;50.350;6.576;2023-04-03T13:58:32;97146.34;;;9.44;42.96
23229;BME280;11783;50.350;6.576;2023-04-03T14:03:52;97133.13;;;9.94;42.62
23229;BME280;11783;50.350;6.576;2023-04-03T14:06:18;97129.66;;;10.18;42.90
23229;BME280;11783;50.350;6.576;2023-04-03T14:08:45;97123.78;;;9.91;37.78
23229;BME280;11783;50.350;6.576;2023-04-03T14:13:41;97122.94;;;10.16;39.85
23229;BME280;11783;50.350;6.576;2023-04-03T14:16:07;97127.91;;;9.87;41.06
23229;BME280;11783;50.350;6.576;2023-04-03T14:18:32;97123.72;;;9.98;41.62
23229;BME280;11783;50.350;6.576;2023-04-03T14:20:57;97127.97;;;9.11;38.40
23229;BME280;11783;50.350;6.576;2023-04-03T14:23:23;97133.81;;;9.83;44.34
23229;BME280;11783;50.350;6.576;2023-04-03T14:25:48;97139.59;;;10.05;38.81
23229;BME280;11783;50.350;6.576;2023-04-03T14:28:18;97126.31;;;10.29;40.91
23229;BME280;11783;50.350;6.576;2023-04-03T14:30:45;97115.66;;;10.54;38.24
23229;BME280;11783;50.350;6.576;2023-04-03T14:33:17;97129.06;;;10.59;39.19
23229;BME280;11783;50.350;6.576;2023-04-03T14:35:43;97121.09;;;10.23;39.22
23229;BME280;11783;50.350;6.576;2023-04-03T14:38:21;97125.75;;;10.46;39.81
23229;BME280;11783;50.350;6.576;2023-04-03T14:40:47;97114.06;;;10.28;40.78
23229;BME280;11783;50.350;6.576;2023-04-03T14:43:13;97122.22;;;10.52;41.61
23229;BME280;11783;50.350;6.576;2023-04-03T14:45:39;97114.38;;;10.75;37.42
23229;BME280;11783;50.350;6.576;2023-04-03T14:48:06;97121.41;;;10.70;36.13
23229;BME280;11783;50.350;6.576;2023-04-03T14:50:35;97117.34;;;10.67;36.67
23229;BME280;11783;50.350;6.576;2023-04-03T14:53:00;97108.25;;;10.93;38.97
23229;BME280;11783;50.350;6.576;2023-04-03T14:55:26;97110.44;;;11.14;40.30
23229;BME280;11783;50.350;6.576;2023-04-03T14:57:53;97113.38;;;11.25;36.65
23229;BME280;11783;50.350;6.576;2023-04-03T15:00:20;97105.88;;;11.33;37.40